Time;durP1;ratioP1;P1;durP2;ratioP2;P2;SDS_P1;SDS_P2;PMS_P1;PMS_P2;Temp;Humidity;BMP_temperature;BMP_pressure;BME280_temperature;BME280_humidity;BME280_pressure;Samples;Min_cycle;Max_cycle;Signal;HPM_P1;HPM_P2
2023/07/18 00:00:14;;;;;;;18.98;17.35;;;;;;;22.77;83.30;93103.78;5052949;28;20289;-75
2023/07/18 00:02:42;;;;;;;20.48;18.27;;;;;;;22.91;83.12;93120.88;5053657;28;20176;-74
2023/07/18 00:05:12;;;;;;;18.52;16.83;;;;;;;22.73;84.28;93113.56;5052819;28;20241;-75
2023/07/18 00:07:40;;;;;;;18.20;16.60;;;;;;;22.78;83.98;93115.97;5062235;28;20199;-75
2023/07/18 00:10:08;;;;;;;20.52;17.23;;;;;;;22.85;83.72;93111.59;5068356;28;20235;-75
2023/07/18 00:12:34;;;;;;;19.05;16.80;;;;;;;22.71;84.79;93105.91;5085557;28;20199;-75
2023/07/18 00:14:59;;;;;;;18.98;15.98;;;;;;;22.70;84.65;93109.69;5052537;28;20252;-70
2023/07/18 00:17:25;;;;;;;18.10;16.60;;;;;;;22.60;84.74;93096.88;5052931;28;20182;-74
2023/07/18 00:19:50;;;;;;;18.17;16.55;;;;;;;22.64;85.21;93116.41;5047480;28;20284;-74
2023/07/18 00:22:16;;;;;;;19.27;17.45;;;;;;;22.67;84.72;93115.72;5031461;28;20190;-74
2023/07/18 00:24:41;;;;;;;19.00;17.15;;;;;;;22.62;84.85;93102.63;5035508;28;20266;-74
2023/07/18 00:27:07;;;;;;;18.90;17.10;;;;;;;22.76;84.94;93102.22;5052932;28;20197;-74
2023/07/18 00:29:32;;;;;;;21.80;17.55;;;;;;;22.60;84.90;93086.22;5052568;28;20198;-74
2023/07/18 00:31:57;;;;;;;20.63;17.20;;;;;;;22.26;85.33;93056.78;5052957;28;20189;-74
2023/07/18 00:34:23;;;;;;;18.77;17.05;;;;;;;22.53;85.35;93099.38;5054807;28;20211;-74
2023/07/18 00:36:48;;;;;;;19.67;17.77;;;;;;;22.49;84.80;93095.78;5037004;28;20269;-74
2023/07/18 00:39:13;;;;;;;19.70;17.90;;;;;;;22.64;85.14;93108.41;5035749;28;20209;-74
2023/07/18 00:41:39;;;;;;;19.98;18.13;;;;;;;22.65;85.27;93095.84;5051639;28;20223;-75
2023/07/18 00:44:04;;;;;;;19.70;17.60;;;;;;;22.47;85.99;93083.94;5052436;28;20251;-74
2023/07/18 00:46:31;;;;;;;19.23;17.42;;;;;;;22.57;85.96;93089.56;5052146;28;20220;-75
2023/07/18 00:48:57;;;;;;;20.38;18.33;;;;;;;22.60;85.94;93091.56;5051702;28;20180;-75
2023/07/18 00:51:24;;;;;;;18.77;17.08;;;;;;;22.62;85.27;93086.66;5053766;28;20212;-75
2023/07/18 00:53:51;;;;;;;19.85;18.00;;;;;;;22.46;85.28;93066.44;5053964;28;20197;-74
2023/07/18 00:56:17;;;;;;;19.67;17.88;;;;;;;22.58;85.54;93077.81;5052131;28;20220;-73
2023/07/18 00:58:43;;;;;;;19.10;17.33;;;;;;;22.64;85.53;93073.81;5051896;28;20187;-73
2023/07/18 01:01:08;;;;;;;18.67;16.75;;;;;;;22.49;85.75;93068.41;5051752;28;20250;-73
2023/07/18 01:03:34;;;;;;;21.55;19.40;;;;;;;22.54;86.11;93063.63;5050755;28;20174;-73
2023/07/18 01:05:59;;;;;;;20.15;17.95;;;;;;;22.56;86.53;93069.41;5059722;28;20235;-73
2023/07/18 01:08:25;;;;;;;20.13;18.23;;;;;;;22.17;86.81;93049.72;5051641;28;20238;-73
2023/07/18 01:10:50;;;;;;;20.10;18.20;;;;;;;22.30;87.05;93069.06;5051602;28;20212;-73
2023/07/18 01:13:15;;;;;;;20.52;18.50;;;;;;;22.36;87.33;93061.59;5051738;28;20208;-73
2023/07/18 01:15:41;;;;;;;20.50;18.50;;;;;;;22.21;87.34;93039.94;5051499;28;20246;-73
2023/07/18 01:18:09;;;;;;;19.85;17.92;;;;;;;22.39;86.25;93047.59;5051528;28;20211;-72
2023/07/18 01:20:36;;;;;;;20.02;18.13;;;;;;;22.41;86.62;93059.47;5051275;28;20291;-73
2023/07/18 01:23:05;;;;;;;22.80;20.27;;;;;;;22.33;87.12;93063.06;5052584;28;20210;-72
2023/07/18 01:25:31;;;;;;;20.75;18.63;;;;;;;22.46;86.26;93056.53;5050464;28;20243;-72
2023/07/18 01:27:59;;;;;;;21.35;19.25;;;;;;;22.36;86.77;93066.91;5050462;28;20890;-75
2023/07/18 01:30:25;;;;;;;21.30;19.15;;;;;;;22.33;86.79;93076.38;5051102;28;20250;-75
2023/07/18 01:32:52;;;;;;;21.38;19.33;;;;;;;22.09;88.69;93053.28;5051561;28;20189;-75
2023/07/18 01:35:19;;;;;;;22.08;19.92;;;;;;;22.17;88.17;93075.53;5051200;28;20223;-76
2023/07/18 01:37:45;;;;;;;22.10;19.98;;;;;;;22.17;88.69;93076.31;5050922;28;20659;-75
2023/07/18 01:40:12;;;;;;;19.67;17.88;;;;;;;22.07;88.72;93070.69;5050796;28;20239;-75
2023/07/18 01:42:39;;;;;;;21.77;19.60;;;;;;;22.10;88.48;93070.78;5051276;28;20208;-75
2023/07/18 01:45:05;;;;;;;20.38;18.30;;;;;;;22.05;87.44;93070.25;5038985;28;20232;-75
2023/07/18 01:47:31;;;;;;;21.60;19.50;;;;;;;22.08;88.48;93073.03;5050723;28;20213;-75
2023/07/18 01:50:04;;;;;;;19.98;18.23;;;;;;;22.12;89.23;93081.06;5050765;28;20261;-75
2023/07/18 01:52:31;;;;;;;21.58;19.25;;;;;;;22.17;89.02;93080.84;5056794;28;20189;-75
2023/07/18 01:55:00;;;;;;;20.45;18.60;;;;;;;21.89;89.56;93069.41;5050606;28;20233;-76
2023/07/18 01:57:30;;;;;;;21.77;19.60;;;;;;;22.03;89.73;93069.81;5050991;28;20727;-76
2023/07/18 01:59:55;;;;;;;20.45;18.27;;;;;;;21.98;89.94;93072.69;5050405;28;20233;-75
2023/07/18 02:02:21;;;;;;;20.88;18.67;;;;;;;22.00;89.87;93065.16;5057608;28;20181;-76
2023/07/18 02:04:48;;;;;;;20.73;18.08;;;;;;;21.92;89.21;93068.72;5050206;28;20228;-76
2023/07/18 02:07:13;;;;;;;20.90;18.05;;;;;;;21.90;89.67;93073.59;5050359;28;20189;-76
2023/07/18 02:09:39;;;;;;;20.70;18.65;;;;;;;21.89;89.28;93074.72;5050001;28;20257;-76
2023/07/18 02:12:04;;;;;;;20.90;18.73;;;;;;;21.82;90.28;93071.88;5050720;28;20186;-76
2023/07/18 02:14:30;;;;;;;20.77;18.50;;;;;;;21.76;90.22;93070.56;5050355;28;20277;-74
2023/07/18 02:16:55;;;;;;;21.98;19.70;;;;;;;21.55;90.84;93054.72;5050368;28;20187;-74
2023/07/18 02:19:20;;;;;;;21.00;18.92;;;;;;;21.61;92.15;93069.34;5050153;28;20189;-75
2023/07/18 02:21:46;;;;;;;23.17;20.38;;;;;;;21.70;91.55;93077.94;5051065;28;20185;-74
2023/07/18 02:24:11;;;;;;;22.52;19.83;;;;;;;21.78;91.25;93078.97;5050730;28;20197;-75
2023/07/18 02:26:38;;;;;;;20.85;18.70;;;;;;;21.79;90.57;93072.56;5049682;28;20229;-74
2023/07/18 02:29:03;;;;;;;22.48;18.52;;;;;;;21.61;91.29;93068.53;5061418;28;20179;-74
2023/07/18 02:31:28;;;;;;;20.98;18.85;;;;;;;21.55;92.05;93067.22;5031945;28;20241;-75
2023/07/18 02:33:54;;;;;;;21.63;19.52;;;;;;;21.56;91.32;93076.75;5030462;28;20192;-74
2023/07/18 02:36:21;;;;;;;21.38;19.50;;;;;;;21.49;92.07;93076.53;5055999;28;20875;-74
2023/07/18 02:38:47;;;;;;;21.10;19.05;;;;;;;21.57;91.14;93078.31;5052759;28;20229;-75
2023/07/18 02:41:12;;;;;;;25.10;20.20;;;;;;;21.74;90.41;93083.38;5057691;28;20310;-75
2023/07/18 02:43:37;;;;;;;21.23;19.25;;;;;;;21.78;90.48;93090.38;5058624;28;20189;-74
2023/07/18 02:46:03;;;;;;;20.70;18.63;;;;;;;21.65;91.12;93090.72;5057588;28;20228;-75
2023/07/18 02:48:28;;;;;;;23.40;20.02;;;;;;;21.68;91.25;93088.13;5052465;28;20737;-75
2023/07/18 02:50:54;;;;;;;20.08;18.13;;;;;;;21.56;91.55;93090.81;5055084;28;20222;-75
2023/07/18 02:53:19;;;;;;;21.35;19.15;;;;;;;21.47;91.41;93068.91;5057196;28;20195;-75
2023/07/18 02:55:44;;;;;;;20.02;18.00;;;;;;;21.51;90.44;93066.38;5053384;28;20225;-75
2023/07/18 02:58:10;;;;;;;21.42;19.35;;;;;;;21.53;90.66;93074.75;5053105;28;20183;-75
2023/07/18 03:00:36;;;;;;;22.25;20.02;;;;;;;21.49;92.00;93071.22;5056065;28;20218;-76
2023/07/18 03:03:02;;;;;;;20.52;18.50;;;;;;;21.39;92.42;93074.31;5049422;28;20196;-75
2023/07/18 03:05:28;;;;;;;20.70;18.58;;;;;;;21.29;93.36;93072.13;5049263;28;20230;-75
2023/07/18 03:07:54;;;;;;;20.25;18.33;;;;;;;21.32;93.80;93079.44;5051360;28;20216;-74
2023/07/18 03:10:20;;;;;;;19.90;17.90;;;;;;;21.48;92.01;93075.00;5044085;28;20235;-75
2023/07/18 03:12:46;;;;;;;20.17;18.38;;;;;;;21.52;91.18;93081.19;5029371;28;20258;-75
2023/07/18 03:15:12;;;;;;;19.80;17.83;;;;;;;21.49;91.37;93076.53;5036785;28;20224;-74
2023/07/18 03:17:37;;;;;;;20.73;18.67;;;;;;;21.53;91.46;93075.53;5049505;28;20236;-75
2023/07/18 03:20:39;;;;;;;21.83;19.52;;;;;;;21.63;91.72;93087.59;5048106;28;20223;-75
2023/07/18 03:22:58;;;;;;;21.77;19.58;;;;;;;21.74;90.78;93088.69;5045920;28;20193;-75
2023/07/18 03:25:23;;;;;;;21.85;19.58;;;;;;;21.75;90.42;93082.28;5048377;28;20225;-75
2023/07/18 03:27:49;;;;;;;22.30;20.00;;;;;;;21.77;90.04;93066.78;5048988;28;20226;-73
2023/07/18 03:30:16;;;;;;;21.33;19.20;;;;;;;21.90;89.59;93076.25;5040744;28;20240;-73
2023/07/18 03:32:42;;;;;;;20.25;18.23;;;;;;;21.91;90.15;93089.25;5028685;28;20196;-73
2023/07/18 03:35:09;;;;;;;20.98;17.55;;;;;;;22.03;90.30;93091.09;5035892;28;20444;-73
2023/07/18 03:37:35;;;;;;;19.33;17.45;;;;;;;22.03;90.36;93093.75;5056699;28;20748;-72
2023/07/18 03:40:01;;;;;;;21.13;18.95;;;;;;;22.07;90.28;93092.72;5051676;28;20258;-73
2023/07/18 03:42:27;;;;;;;33.50;19.13;;;;;;;22.20;89.48;93102.22;5049645;28;20190;-73
2023/07/18 03:44:53;;;;;;;22.63;19.45;;;;;;;22.33;88.31;93102.97;5048904;28;20224;-73
2023/07/18 03:47:18;;;;;;;20.40;18.25;;;;;;;22.35;88.88;93105.28;5049395;28;20199;-73
2023/07/18 03:49:43;;;;;;;20.75;18.58;;;;;;;22.45;88.16;93102.13;5048683;28;20246;-73
2023/07/18 03:52:09;;;;;;;22.05;18.73;;;;;;;22.43;88.33;93115.78;5050758;28;20196;-73
2023/07/18 03:54:34;;;;;;;24.05;19.42;;;;;;;22.46;88.88;93120.41;5048506;28;20206;-73
2023/07/18 03:57:00;;;;;;;21.55;19.17;;;;;;;22.61;88.96;93121.63;5049551;28;20259;-73
2023/07/18 03:59:25;;;;;;;20.85;18.70;;;;;;;22.80;87.66;93132.41;5048831;28;20189;-73
2023/07/18 04:01:51;;;;;;;20.65;18.58;;;;;;;22.93;87.06;93139.97;5048804;28;20242;-73
2023/07/18 04:04:17;;;;;;;22.23;19.90;;;;;;;23.03;87.02;93144.03;5048950;28;20243;-72
2023/07/18 04:06:45;;;;;;;20.95;19.05;;;;;;;23.26;85.04;93153.00;5049048;28;20243;-72
2023/07/18 04:09:11;;;;;;;20.60;18.48;;;;;;;23.07;85.00;93116.38;5051858;28;20190;-73
2023/07/18 04:11:37;;;;;;;20.33;18.50;;;;;;;23.38;83.47;93147.59;5047955;28;20212;-73
2023/07/18 04:14:02;;;;;;;21.27;18.88;;;;;;;23.47;83.08;93146.31;5049101;28;20188;-73
2023/07/18 04:16:28;;;;;;;21.33;19.33;;;;;;;23.37;83.87;93141.50;5048749;28;20259;-73
2023/07/18 04:18:53;;;;;;;23.15;20.50;;;;;;;23.44;83.14;93127.59;5048815;28;20177;-72
2023/07/18 04:21:18;;;;;;;22.65;19.88;;;;;;;23.40;83.69;93130.16;5048524;28;20232;-73
2023/07/18 04:23:44;;;;;;;24.85;21.27;;;;;;;23.53;82.58;93131.59;5049037;28;20181;-73
2023/07/18 04:26:09;;;;;;;25.90;20.80;;;;;;;23.67;83.23;93137.25;5035670;28;20776;-72
2023/07/18 04:28:38;;;;;;;26.92;21.98;;;;;;;24.08;80.41;93135.16;5032839;28;20260;-72
2023/07/18 04:31:05;;;;;;;23.35;20.85;;;;;;;24.00;81.64;93136.13;5046769;28;20213;-73
2023/07/18 04:33:34;;;;;;;22.13;19.92;;;;;;;24.12;81.01;93125.34;5052726;28;20195;-72
2023/07/18 04:36:00;;;;;;;23.10;20.70;;;;;;;24.10;81.53;93122.22;5052477;28;20723;-73
2023/07/18 04:38:26;;;;;;;23.88;21.58;;;;;;;24.23;81.28;93131.66;5052270;28;20193;-73
2023/07/18 04:40:51;;;;;;;23.23;20.80;;;;;;;24.29;81.02;93125.72;5045008;28;20242;-73
2023/07/18 04:43:17;;;;;;;22.80;20.58;;;;;;;24.26;79.82;93136.31;5040719;28;20177;-73
2023/07/18 04:45:44;;;;;;;22.60;20.33;;;;;;;24.41;79.68;93138.91;5043868;28;20236;-73
2023/07/18 04:48:15;;;;;;;22.73;20.20;;;;;;;24.20;81.07;93138.50;5052566;28;20192;-72
2023/07/18 04:50:44;;;;;;;30.77;19.88;;;;;;;24.55;80.45;93133.88;5040523;28;20265;-73
2023/07/18 04:53:10;;;;;;;21.50;19.30;;;;;;;24.65;80.13;93138.66;5032891;28;20194;-73
2023/07/18 04:55:36;;;;;;;25.95;20.42;;;;;;;24.94;79.25;93131.94;5031918;28;20241;-73
2023/07/18 04:58:03;;;;;;;21.67;19.58;;;;;;;25.29;77.85;93135.25;5039427;28;20205;-73
2023/07/18 05:00:30;;;;;;;26.85;20.67;;;;;;;25.06;78.21;93123.75;5041184;28;20761;-73
2023/07/18 05:02:56;;;;;;;25.48;20.15;;;;;;;25.79;76.27;93126.91;5051870;28;20196;-73
2023/07/18 05:05:22;;;;;;;21.08;18.98;;;;;;;26.30;73.58;93116.56;5051306;28;20232;-73
2023/07/18 05:07:47;;;;;;;22.08;18.95;;;;;;;26.20;72.94;93126.00;5052184;28;20188;-73
2023/07/18 05:10:13;;;;;;;21.80;19.77;;;;;;;26.18;72.54;93112.22;5057505;28;20251;-73
2023/07/18 05:12:40;;;;;;;23.45;20.67;;;;;;;26.10;73.38;93126.63;5044228;28;20186;-73
2023/07/18 05:15:06;;;;;;;21.98;19.67;;;;;;;25.70;77.12;93112.28;5041819;28;20770;-72
2023/07/18 05:17:31;;;;;;;25.15;20.45;;;;;;;25.52;78.83;93117.34;5074288;28;20196;-76
2023/07/18 05:19:57;;;;;;;23.45;20.20;;;;;;;25.79;76.69;93123.47;5036634;28;20245;-78
2023/07/18 05:22:22;;;;;;;23.17;20.70;;;;;;;26.16;76.27;93135.13;5029130;28;20254;-77
2023/07/18 05:24:47;;;;;;;23.35;20.92;;;;;;;26.22;75.30;93123.75;5034464;28;20233;-73
2023/07/18 05:27:13;;;;;;;25.02;21.60;;;;;;;25.82;75.75;93098.69;5055545;28;20229;-76
2023/07/18 05:29:39;;;;;;;22.10;19.27;;;;;;;26.33;74.57;93139.94;5053752;28;20220;-74
2023/07/18 05:32:05;;;;;;;23.15;20.85;;;;;;;26.60;72.53;93131.50;5044221;28;20254;-72
2023/07/18 05:34:33;;;;;;;24.38;21.77;;;;;;;26.69;72.56;93126.66;5040852;28;20217;-70
2023/07/18 05:37:00;;;;;;;28.58;20.70;;;;;;;26.23;72.59;93121.81;5051087;28;20933;-72
2023/07/18 05:39:27;;;;;;;27.20;21.38;;;;;;;27.13;68.66;93139.38;5047000;28;20182;-74
2023/07/18 05:41:54;;;;;;;23.80;20.25;;;;;;;27.21;67.98;93147.13;5037561;28;20201;-75
2023/07/18 05:44:19;;;;;;;20.95;18.73;;;;;;;27.27;68.81;93140.31;5028886;28;20195;-73
2023/07/18 05:46:45;;;;;;;25.60;20.52;;;;;;;27.37;68.84;93141.56;5049099;28;20208;-71
2023/07/18 05:49:10;;;;;;;22.40;20.20;;;;;;;27.72;65.66;93150.66;5047217;28;20188;-71
2023/07/18 05:51:35;;;;;;;26.95;21.02;;;;;;;27.63;66.16;93152.13;5051483;28;20218;-71
2023/07/18 05:54:04;;;;;;;21.67;19.42;;;;;;;28.94;61.69;93160.66;5050972;28;20205;-70
2023/07/18 05:56:30;;;;;;;22.92;19.85;;;;;;;32.30;51.65;93160.97;5049652;28;20277;-72
2023/07/18 05:58:55;;;;;;;23.85;20.92;;;;;;;35.49;42.77;93174.41;5049440;28;20193;-74
2023/07/18 06:01:21;;;;;;;22.58;19.55;;;;;;;36.18;40.66;93175.94;5046288;28;20222;-73
2023/07/18 06:03:47;;;;;;;23.02;17.92;;;;;;;38.25;36.04;93192.00;5049401;28;20234;-73
2023/07/18 06:06:13;;;;;;;20.77;18.73;;;;;;;37.54;36.83;93181.69;5047914;28;20260;-72
2023/07/18 06:08:39;;;;;;;21.42;18.17;;;;;;;38.19;35.82;93182.06;5044181;28;20199;-73
2023/07/18 06:11:04;;;;;;;21.88;18.35;;;;;;;38.38;34.89;93181.84;5059691;28;20280;-72
2023/07/18 06:13:30;;;;;;;25.52;17.95;;;;;;;38.47;35.14;93176.47;5049864;28;20178;-72
2023/07/18 06:15:55;;;;;;;22.20;18.08;;;;;;;36.33;38.49;93165.53;5049481;28;20217;-74
2023/07/18 06:18:21;;;;;;;20.33;18.52;;;;;;;37.66;36.41;93174.72;5043158;28;20258;-74
2023/07/18 06:20:46;;;;;;;22.00;17.95;;;;;;;40.58;31.55;93187.81;5048913;28;20222;-72
2023/07/18 06:23:11;;;;;;;23.73;17.50;;;;;;;40.57;30.77;93186.28;5045467;28;20186;-71
2023/07/18 06:25:37;;;;;;;18.30;16.60;;;;;;;41.02;30.17;93191.06;5044114;28;20286;-71
2023/07/18 06:28:02;;;;;;;18.73;16.33;;;;;;;40.44;31.48;93182.19;5044653;28;20194;-71
2023/07/18 06:30:29;;;;;;;18.25;16.42;;;;;;;41.21;30.80;93176.16;5048684;28;20966;-71
2023/07/18 06:32:55;;;;;;;18.00;16.15;;;;;;;39.64;33.57;93173.16;5049336;28;20274;-73
2023/07/18 06:35:20;;;;;;;20.27;18.23;;;;;;;40.49;31.09;93185.06;5046221;28;20858;-72
2023/07/18 06:37:45;;;;;;;19.65;17.60;;;;;;;40.15;31.40;93170.78;5049605;28;20186;-73
2023/07/18 06:40:12;;;;;;;19.38;16.77;;;;;;;39.96;32.16;93182.91;5051198;28;20237;-73
2023/07/18 06:42:38;;;;;;;25.30;18.95;;;;;;;38.96;32.99;93179.47;5050970;28;20206;-73
2023/07/18 06:45:04;;;;;;;22.20;18.33;;;;;;;39.45;32.71;93187.94;5049113;28;20260;-71
2023/07/18 06:47:29;;;;;;;21.27;16.88;;;;;;;40.20;30.99;93184.66;5048810;28;20186;-70
2023/07/18 06:49:55;;;;;;;21.25;18.60;;;;;;;35.81;38.16;93153.91;5048973;28;20229;-70
2023/07/18 06:52:20;;;;;;;24.75;22.15;;;;;;;33.10;46.39;93158.63;5048627;28;20181;-73
2023/07/18 06:54:46;;;;;;;24.73;20.58;;;;;;;31.33;51.47;93160.56;5047409;28;20230;-73
2023/07/18 06:57:13;;;;;;;22.50;18.90;;;;;;;30.80;54.99;93143.81;5049258;28;20218;-74
2023/07/18 06:59:40;;;;;;;23.02;19.70;;;;;;;30.64;56.08;93162.31;5052736;28;20263;-77
2023/07/18 07:02:05;;;;;;;23.50;20.15;;;;;;;30.46;55.63;93167.00;5049989;28;20222;-74
2023/07/18 07:04:31;;;;;;;29.38;21.67;;;;;;;29.91;56.23;93153.19;5048334;28;20214;-76
2023/07/18 07:06:56;;;;;;;23.52;20.98;;;;;;;29.41;58.51;93157.75;5049502;28;20205;-75
2023/07/18 07:09:24;;;;;;;22.05;19.80;;;;;;;30.59;55.04;93162.72;5049037;28;20199;-76
2023/07/18 07:11:49;;;;;;;22.17;19.83;;;;;;;30.30;55.95;93169.34;5050067;28;20186;-76
2023/07/18 07:14:15;;;;;;;27.48;20.98;;;;;;;29.61;57.63;93161.59;5052414;28;20190;-75
2023/07/18 07:16:40;;;;;;;24.02;21.50;;;;;;;29.44;58.86;93159.66;5049331;28;20225;-75
2023/07/18 07:19:06;;;;;;;27.98;21.58;;;;;;;29.69;59.28;93152.41;5049634;28;20187;-76
2023/07/18 07:21:31;;;;;;;23.00;20.35;;;;;;;30.29;58.08;93160.47;5049150;28;20210;-76
2023/07/18 07:23:58;;;;;;;27.88;21.35;;;;;;;30.46;56.60;93148.88;5048681;28;20189;-76
2023/07/18 07:26:24;;;;;;;23.50;20.92;;;;;;;29.74;61.05;93149.31;5049317;28;20213;-76
2023/07/18 07:28:50;;;;;;;24.13;21.42;;;;;;;30.09;58.98;93153.19;5049090;28;20193;-76
2023/07/18 07:31:15;;;;;;;24.85;20.98;;;;;;;30.58;58.47;93150.41;5049353;28;20217;-76
2023/07/18 07:33:41;;;;;;;22.73;20.42;;;;;;;30.19;61.11;93142.38;5049411;28;20768;-76
2023/07/18 07:36:07;;;;;;;28.70;21.02;;;;;;;30.61;59.98;93144.22;5049507;28;20292;-76
2023/07/18 07:38:33;;;;;;;22.83;20.63;;;;;;;30.85;57.38;93151.50;5049627;28;20215;-75
2023/07/18 07:40:58;;;;;;;22.55;20.00;;;;;;;30.75;58.44;93146.88;5049254;28;20252;-76
2023/07/18 07:43:24;;;;;;;22.02;19.88;;;;;;;30.36;59.40;93147.00;5049717;28;20271;-75
2023/07/18 07:45:49;;;;;;;22.45;19.90;;;;;;;29.96;61.24;93155.50;5049152;28;20234;-75
2023/07/18 07:48:15;;;;;;;22.20;19.30;;;;;;;30.16;60.88;93153.16;5049638;28;20205;-75
2023/07/18 07:50:42;;;;;;;25.08;20.58;;;;;;;30.43;59.72;93157.00;5048915;28;20233;-76
2023/07/18 07:53:07;;;;;;;22.92;20.55;;;;;;;30.53;59.43;93150.81;5049535;28;20191;-75
2023/07/18 07:55:33;;;;;;;22.88;20.40;;;;;;;30.41;59.49;93159.31;5050779;28;20316;-75
2023/07/18 07:57:58;;;;;;;21.70;19.40;;;;;;;30.52;59.69;93154.66;5049276;28;21068;-75
2023/07/18 08:00:24;;;;;;;23.00;20.63;;;;;;;30.48;59.59;93160.06;5052336;28;20238;-76
2023/07/18 08:02:49;;;;;;;23.48;19.35;;;;;;;30.59;57.76;93154.63;5053087;28;20193;-75
2023/07/18 08:05:14;;;;;;;20.98;18.83;;;;;;;30.87;55.73;93152.63;5051367;28;20245;-75
2023/07/18 08:07:41;;;;;;;21.33;19.23;;;;;;;30.22;57.61;93147.03;5053333;28;20205;-75
2023/07/18 08:10:07;;;;;;;20.55;18.45;;;;;;;30.33;57.34;93163.94;5053432;28;20229;-75
2023/07/18 08:12:32;;;;;;;23.15;19.63;;;;;;;30.79;56.13;93155.75;5053147;28;20209;-76
2023/07/18 08:14:58;;;;;;;21.75;18.90;;;;;;;31.33;54.54;93168.66;5052427;28;20297;-75
2023/07/18 08:17:23;;;;;;;23.33;20.48;;;;;;;30.92;54.98;93157.63;5052719;28;20181;-75
2023/07/18 08:19:48;;;;;;;23.48;20.40;;;;;;;30.39;56.54;93159.69;5056089;28;20253;-76
2023/07/18 08:22:14;;;;;;;22.38;20.15;;;;;;;30.41;57.37;93153.91;5055228;28;20205;-75
2023/07/18 08:24:39;;;;;;;22.48;19.92;;;;;;;30.70;56.44;93155.38;5052430;28;20234;-75
2023/07/18 08:27:05;;;;;;;23.02;20.88;;;;;;;30.42;57.82;93163.53;5052954;28;20230;-76
2023/07/18 08:29:33;;;;;;;23.83;21.52;;;;;;;30.09;56.44;93155.88;5052253;28;20190;-75
2023/07/18 08:31:59;;;;;;;23.15;20.95;;;;;;;30.33;57.36;93157.78;5052533;28;20178;-76
2023/07/18 08:34:24;;;;;;;22.58;20.42;;;;;;;30.34;56.57;93159.31;5051606;28;20193;-76
2023/07/18 08:36:50;;;;;;;23.25;21.00;;;;;;;30.53;56.23;93153.50;5052665;28;20182;-77
2023/07/18 08:39:16;;;;;;;23.75;21.10;;;;;;;30.86;55.08;93159.22;5052671;28;20200;-77
2023/07/18 08:41:45;;;;;;;23.60;21.20;;;;;;;30.91;55.64;93152.63;5051856;28;20293;-76
2023/07/18 08:44:16;;;;;;;26.17;23.45;;;;;;;31.26;54.81;93160.53;5051859;28;20190;-77
2023/07/18 08:46:43;;;;;;;24.80;22.27;;;;;;;30.94;56.32;93149.16;5051354;28;20241;-76
2023/07/18 08:49:13;;;;;;;24.95;22.33;;;;;;;31.09;57.27;93159.50;5054885;28;20201;-76
2023/07/18 08:51:39;;;;;;;23.60;21.17;;;;;;;31.22;54.87;93151.72;5052201;28;20237;-76
2023/07/18 08:54:05;;;;;;;25.23;22.55;;;;;;;31.33;53.88;93143.56;5051436;28;20190;-77
2023/07/18 08:56:30;;;;;;;23.05;20.02;;;;;;;31.48;54.18;93156.59;5033454;28;20274;-78
2023/07/18 08:58:57;;;;;;;22.63;20.38;;;;;;;31.05;54.41;93152.56;5032391;28;20187;-76
2023/07/18 09:01:24;;;;;;;22.95;20.58;;;;;;;31.49;52.44;93131.13;5053471;28;20262;-77
2023/07/18 09:03:49;;;;;;;23.13;20.65;;;;;;;31.57;53.18;93148.03;5059064;28;20228;-77
2023/07/18 09:06:19;;;;;;;22.77;20.38;;;;;;;31.50;52.99;93154.28;5051974;28;20688;-77
2023/07/18 09:08:46;;;;;;;23.05;20.95;;;;;;;31.85;51.89;93156.75;5084344;28;20197;-76
2023/07/18 09:11:14;;;;;;;23.17;20.75;;;;;;;31.40;53.62;93141.59;5048998;28;20281;-77
2023/07/18 09:13:41;;;;;;;23.30;20.77;;;;;;;30.95;55.01;93143.38;5051852;28;20194;-77
2023/07/18 09:16:15;;;;;;;22.83;20.60;;;;;;;30.92;54.80;93151.47;5051556;28;20238;-77
2023/07/18 09:18:47;;;;;;;21.90;19.80;;;;;;;31.00;53.79;93140.25;5051702;28;20194;-77
2023/07/18 09:21:12;;;;;;;22.55;19.48;;;;;;;31.10;53.19;93146.75;5028066;28;20226;-77
2023/07/18 09:23:42;;;;;;;22.65;19.65;;;;;;;30.65;54.03;93148.44;5014146;28;20263;-77
2023/07/18 09:26:10;;;;;;;20.98;18.98;;;;;;;30.06;56.41;93143.94;5046636;28;20846;-76
2023/07/18 09:28:36;;;;;;;23.33;20.95;;;;;;;31.08;55.17;93133.66;5051544;28;20194;-77
2023/07/18 09:31:01;;;;;;;24.35;21.80;;;;;;;31.15;54.36;93138.25;5050522;28;20214;-76
2023/07/18 09:33:27;;;;;;;22.42;20.30;;;;;;;31.24;52.77;93146.66;5051466;28;20246;-76
2023/07/18 09:35:57;;;;;;;24.30;21.40;;;;;;;30.87;54.64;93139.16;5050079;28;20241;-77
2023/07/18 09:38:22;;;;;;;22.13;19.80;;;;;;;31.18;53.54;93138.22;5059985;28;20186;-76
2023/07/18 09:40:48;;;;;;;22.73;20.65;;;;;;;31.30;52.08;93147.84;5050958;28;20994;-76
2023/07/18 09:43:15;;;;;;;23.73;21.33;;;;;;;31.75;53.61;93146.00;5051510;28;20178;-76
2023/07/18 09:45:41;;;;;;;24.73;20.80;;;;;;;31.70;53.38;93147.19;5039529;28;20218;-76
2023/07/18 09:48:08;;;;;;;24.23;21.77;;;;;;;31.75;54.06;93137.91;5031498;28;20229;-76
2023/07/18 09:50:37;;;;;;;20.95;19.08;;;;;;;31.84;49.84;93136.31;5046482;28;20225;-76
2023/07/18 09:53:09;;;;;;;24.45;19.48;;;;;;;31.63;51.94;93128.31;5052675;28;20178;-76
2023/07/18 09:55:36;;;;;;;22.77;20.67;;;;;;;31.13;51.68;93132.50;5053775;28;20240;-76
2023/07/18 09:58:02;;;;;;;22.85;20.67;;;;;;;31.58;53.02;93130.69;5051164;28;20183;-76
2023/07/18 10:00:28;;;;;;;26.02;20.17;;;;;;;31.67;52.62;93112.88;5050532;28;20226;-76
2023/07/18 10:02:55;;;;;;;23.40;20.35;;;;;;;31.32;51.53;93132.00;5050933;28;20178;-76
2023/07/18 10:05:20;;;;;;;22.60;20.40;;;;;;;31.25;52.94;93116.59;5051454;28;20301;-76
2023/07/18 10:07:46;;;;;;;22.52;20.30;;;;;;;31.06;53.56;93103.63;5031664;28;20190;-76
2023/07/18 10:10:12;;;;;;;23.33;20.88;;;;;;;30.77;54.49;93112.25;5038082;28;20225;-77
2023/07/18 10:13:00;;;;;;;24.15;21.63;;;;;;;30.56;52.71;93101.50;5050431;28;20213;-77
2023/07/18 10:15:27;;;;;;;22.65;20.30;;;;;;;30.94;53.13;93111.38;5050285;28;20751;-76
2023/07/18 10:17:53;;;;;;;20.48;18.10;;;;;;;31.13;52.46;93113.59;5050692;28;20955;-76
2023/07/18 10:20:19;;;;;;;22.42;19.63;;;;;;;31.15;52.38;93117.44;5056805;28;20229;-75
2023/07/18 10:22:57;;;;;;;17.35;15.65;;;;;;;31.41;50.04;93129.63;5048776;28;21095;-76
2023/07/18 10:25:23;;;;;;;19.58;17.33;;;;;;;31.44;50.93;93117.28;5049697;28;20249;-77
2023/07/18 10:27:49;;;;;;;19.42;17.48;;;;;;;32.16;48.28;93109.75;5050514;28;20186;-76
2023/07/18 10:30:17;;;;;;;19.35;17.33;;;;;;;31.45;52.08;93114.19;5049987;28;20218;-76
2023/07/18 10:32:56;;;;;;;19.67;17.65;;;;;;;32.19;48.92;93119.03;5050645;28;20693;-76
2023/07/18 10:35:24;;;;;;;21.85;17.73;;;;;;;32.49;49.50;93106.38;5050048;28;20205;-76
2023/07/18 10:37:55;;;;;;;18.08;16.20;;;;;;;32.33;48.96;93111.53;5050631;28;20232;-77
2023/07/18 10:40:38;;;;;;;18.35;16.55;;;;;;;32.51;48.07;93116.78;5049663;28;20247;-76
2023/07/18 10:43:05;;;;;;;17.42;15.68;;;;;;;32.61;48.93;93116.66;5048824;28;20250;-76
2023/07/18 10:45:39;;;;;;;17.50;15.40;;;;;;;32.05;47.63;93108.34;5050012;28;20213;-77
2023/07/18 10:48:15;;;;;;;17.75;15.95;;;;;;;32.49;49.30;93111.78;5050211;28;20182;-76
2023/07/18 10:50:42;;;;;;;18.02;16.27;;;;;;;31.89;48.57;93116.97;5049881;28;20304;-76
2023/07/18 10:53:19;;;;;;;19.33;14.52;;;;;;;31.85;47.13;93121.63;5049888;28;20186;-76
2023/07/18 10:55:45;;;;;;;15.70;14.30;;;;;;;32.31;46.75;93111.16;5051635;28;20221;-76
2023/07/18 10:58:17;;;;;;;14.43;12.73;;;;;;;32.22;44.90;93118.97;5050065;28;20212;-77
2023/07/18 11:00:43;;;;;;;16.25;14.52;;;;;;;31.54;45.96;93113.72;5049570;28;20206;-77
2023/07/18 11:03:22;;;;;;;14.05;12.85;;;;;;;31.18;45.46;93081.56;5049899;28;20197;-75
2023/07/18 11:05:49;;;;;;;13.57;12.38;;;;;;;31.55;45.46;93112.59;5048766;28;20217;-76
2023/07/18 11:08:25;;;;;;;12.65;11.52;;;;;;;31.52;45.32;93108.72;5050647;28;20217;-75
2023/07/18 11:10:59;;;;;;;12.65;11.52;;;;;;;31.23;44.43;93113.53;5048388;28;20218;-76
2023/07/18 11:13:28;;;;;;;12.13;11.00;;;;;;;30.80;44.48;93111.44;5050026;28;20261;-76